createdAt,value
2018-05-18T00:00:00.231Z,66.24
2018-05-18T00:02:03.772Z,66.44
2018-05-18T00:04:07.104Z,66.22
2018-05-18T00:06:10.458Z,66.01
2018-05-18T00:08:13.833Z,66.18
2018-05-18T00:10:18.159Z,66.35
2018-05-18T00:12:21.527Z,67.08
2018-05-18T00:14:24.952Z,67.25
2018-05-18T00:16:28.284Z,66.91
2018-05-18T00:18:31.593Z,66.59
2018-05-18T00:20:36.004Z,66.66
2018-05-18T00:22:39.363Z,66.71
2018-05-18T00:24:42.718Z,67.06
2018-05-18T00:26:46.152Z,67.59
2018-05-18T00:28:49.674Z,67.83
2018-05-18T00:30:53.084Z,68.00
2018-05-18T00:32:56.515Z,67.40
2018-05-18T00:34:59.889Z,68.05
2018-05-18T00:37:03.220Z,66.98
2018-05-18T00:39:06.559Z,67.63
2018-05-18T00:41:09.922Z,67.40
2018-05-18T00:43:13.325Z,67.36
2018-05-18T00:45:18.013Z,67.00
2018-05-18T00:47:21.475Z,66.54
2018-05-18T00:49:24.819Z,66.35
2018-05-18T00:51:28.233Z,66.88
2018-05-18T00:53:31.598Z,67.28
2018-05-18T00:55:44.378Z,67.01
2018-05-18T00:57:47.826Z,67.31
2018-05-18T00:59:51.198Z,66.83
2018-05-18T01:01:54.647Z,66.93
2018-05-18T01:03:57.978Z,67.07
2018-05-18T01:06:01.338Z,66.12
2018-05-18T01:08:04.802Z,66.06
2018-05-18T01:10:08.198Z,66.23
2018-05-18T01:12:11.639Z,66.61
2018-05-18T01:14:15.206Z,66.13
2018-05-18T01:16:18.802Z,65.71
2018-05-18T01:18:22.214Z,65.91
2018-05-18T01:20:25.658Z,66.70
2018-05-18T01:22:29.070Z,66.53
2018-05-18T01:24:32.455Z,66.46
2018-05-18T01:26:35.792Z,66.77
2018-05-18T01:28:39.210Z,66.58
2018-05-18T01:30:42.596Z,66.51
2018-05-18T01:32:45.993Z,66.53
2018-05-18T01:34:49.404Z,66.13
2018-05-18T01:36:52.949Z,65.72
2018-05-18T01:38:56.322Z,66.52
2018-05-18T01:40:59.713Z,66.44
2018-05-18T01:43:03.120Z,65.64
2018-05-18T01:45:06.449Z,66.32
2018-05-18T01:47:09.827Z,65.93
2018-05-18T01:49:13.231Z,66.04
2018-05-18T01:51:16.578Z,65.78
2018-05-18T01:53:19.952Z,65.69
2018-05-18T01:55:23.337Z,65.99
2018-05-18T01:57:26.743Z,65.29
2018-05-18T01:59:30.159Z,65.22
2018-05-18T02:01:33.529Z,65.70
2018-05-18T02:03:36.899Z,65.81
2018-05-18T02:05:40.279Z,66.05
2018-05-18T02:07:43.615Z,65.34
2018-05-18T02:09:46.965Z,64.94
2018-05-18T02:11:50.323Z,64.87
2018-05-18T02:13:53.665Z,64.94
2018-05-18T02:15:57.009Z,64.69
2018-05-18T02:18:00.451Z,64.02
2018-05-18T02:20:03.864Z,63.59
2018-05-18T02:22:07.180Z,64.13
2018-05-18T02:24:10.584Z,64.35
2018-05-18T02:26:14.030Z,64.75
2018-05-18T02:28:17.526Z,64.04
2018-05-18T02:30:20.960Z,64.42
2018-05-18T02:32:24.383Z,64.58
2018-05-18T02:34:27.780Z,63.89
2018-05-18T02:36:31.178Z,64.53
2018-05-18T02:38:34.546Z,64.41
2018-05-18T02:40:38.108Z,64.88
2018-05-18T02:42:41.496Z,64.68
2018-05-18T02:44:45.614Z,65.18
2018-05-18T02:46:49.046Z,65.47
2018-05-18T02:48:52.398Z,66.32
2018-05-18T02:50:55.842Z,66.21
2018-05-18T02:52:59.239Z,66.02
2018-05-18T02:55:02.647Z,65.48
2018-05-18T02:57:05.992Z,63.89
2018-05-18T02:59:09.371Z,64.17
2018-05-18T03:01:12.744Z,64.26
2018-05-18T03:03:16.844Z,64.15
2018-05-18T03:05:20.988Z,64.54
2018-05-18T03:07:24.444Z,64.28
2018-05-18T03:09:28.541Z,64.89
2018-05-18T03:11:31.876Z,64.91
2018-05-18T03:13:35.250Z,64.54
2018-05-18T03:15:38.607Z,64.96
2018-05-18T03:17:41.936Z,64.17
2018-05-18T03:19:45.307Z,63.85
2018-05-18T03:21:49.493Z,64.32
2018-05-18T03:23:52.835Z,64.02
2018-05-18T03:25:56.428Z,64.18
2018-05-18T03:27:59.750Z,63.90
2018-05-18T03:30:03.079Z,64.58
2018-05-18T03:32:06.497Z,64.74
2018-05-18T03:34:09.934Z,64.30
2018-05-18T03:36:13.250Z,63.04
2018-05-18T03:38:16.772Z,63.71
2018-05-18T03:40:20.871Z,63.42
2018-05-18T03:42:24.200Z,63.92
2018-05-18T03:44:27.578Z,64.32
2018-05-18T03:46:30.923Z,63.11
2018-05-18T03:48:34.264Z,62.75
2018-05-18T03:50:38.370Z,62.88
2018-05-18T03:52:41.700Z,63.03
2018-05-18T03:54:45.003Z,63.03
2018-05-18T03:56:48.345Z,63.00
2018-05-18T03:58:51.755Z,63.30
2018-05-18T04:00:55.096Z,62.83
2018-05-18T04:03:16.049Z,62.94
2018-05-18T04:05:36.931Z,62.60
2018-05-18T04:07:58.506Z,62.63
2018-05-18T04:10:01.856Z,62.34
2018-05-18T04:12:05.962Z,62.17
2018-05-18T04:14:09.371Z,62.74
2018-05-18T04:16:12.735Z,62.86
2018-05-18T04:18:16.152Z,62.87
2018-05-18T04:20:19.894Z,62.73
2018-05-18T04:22:23.401Z,62.38
2018-05-18T04:24:27.940Z,62.10
2018-05-18T04:26:31.347Z,61.11
2018-05-18T04:28:36.023Z,62.40
2018-05-18T04:30:39.587Z,62.42
2018-05-18T04:32:42.925Z,62.18
2018-05-18T04:34:46.315Z,62.29
2018-05-18T04:36:49.631Z,63.08
2018-05-18T04:38:52.969Z,63.24
2018-05-18T04:40:56.326Z,63.17
2018-05-18T04:42:59.761Z,63.53
2018-05-18T04:45:03.246Z,62.47
2018-05-18T04:47:07.011Z,62.80
2018-05-18T04:49:10.390Z,62.84
2018-05-18T04:51:13.916Z,63.09
2018-05-18T04:53:17.504Z,62.67
2018-05-18T04:55:21.733Z,63.00
2018-05-18T04:57:25.240Z,62.40
2018-05-18T04:59:28.622Z,62.73
2018-05-18T05:01:32.571Z,61.42
2018-05-18T05:03:35.952Z,61.90
2018-05-18T05:05:39.463Z,63.38
2018-05-18T05:07:45.211Z,62.17
2018-05-18T05:09:48.913Z,62.00
2018-05-18T05:11:52.268Z,62.21
2018-05-18T05:13:55.923Z,62.81
2018-05-18T05:15:59.358Z,61.49
2018-05-18T05:18:02.668Z,63.11
2018-05-18T05:20:06.118Z,62.90
2018-05-18T05:22:10.268Z,61.55
2018-05-18T05:24:13.624Z,62.74
2018-05-18T05:26:17.872Z,62.68
2018-05-18T05:28:21.215Z,62.50
2018-05-18T05:30:24.918Z,62.22
2018-05-18T05:32:28.366Z,60.73
2018-05-18T05:34:33.068Z,60.81
2018-05-18T05:36:36.521Z,61.11
2018-05-18T05:38:55.587Z,62.10
2018-05-18T05:40:59.236Z,61.88
2018-05-18T05:43:02.609Z,61.46
2018-05-18T05:45:05.919Z,60.62
2018-05-18T05:47:09.598Z,61.82
2018-05-18T05:49:13.037Z,61.77
2018-05-18T05:51:16.478Z,61.27
2018-05-18T05:53:20.562Z,61.16
2018-05-18T05:55:23.949Z,60.64
2018-05-18T05:57:27.326Z,61.16
2018-05-18T05:59:30.758Z,60.60
2018-05-18T06:01:34.303Z,60.46
2018-05-18T06:03:37.731Z,60.33
2018-05-18T06:05:41.242Z,60.20
2018-05-18T06:07:45.423Z,60.33
2018-05-18T06:09:48.862Z,59.99
2018-05-18T06:11:52.629Z,59.13
2018-05-18T06:13:56.259Z,59.93
2018-05-18T06:15:59.887Z,60.34
2018-05-18T06:18:03.736Z,59.24
2018-05-18T06:20:07.374Z,59.71
2018-05-18T06:22:11.071Z,59.84
2018-05-18T06:24:14.536Z,60.20
2018-05-18T06:26:18.212Z,60.09
2018-05-18T06:28:21.629Z,60.18
2018-05-18T06:30:25.075Z,59.99
2018-05-18T06:32:28.495Z,59.52
2018-05-18T06:34:31.872Z,59.37
2018-05-18T06:36:35.278Z,59.04
2018-05-18T06:38:38.691Z,59.32
2018-05-18T06:40:42.024Z,59.24
2018-05-18T06:42:45.443Z,60.61
2018-05-18T06:44:48.937Z,60.47
2018-05-18T06:46:52.815Z,60.34
2018-05-18T06:48:57.147Z,59.95
2018-05-18T06:51:00.635Z,59.92
2018-05-18T06:53:04.058Z,60.60
2018-05-18T06:55:07.501Z,60.07
2018-05-18T06:57:10.891Z,61.15
2018-05-18T06:59:14.460Z,59.71
2018-05-18T07:01:17.982Z,59.08
2018-05-18T07:03:22.249Z,59.59
2018-05-18T07:05:25.684Z,59.15
2018-05-18T07:07:29.926Z,59.62
2018-05-18T07:09:33.392Z,59.47
2018-05-18T07:11:36.971Z,58.77
2018-05-18T07:13:40.390Z,58.11
2018-05-18T07:15:43.788Z,57.50
2018-05-18T07:17:47.896Z,58.05
2018-05-18T07:19:51.526Z,57.57
2018-05-18T07:21:55.113Z,56.92
2018-05-18T07:23:58.559Z,55.55
2018-05-18T07:26:02.298Z,55.83
2018-05-18T07:28:06.488Z,56.24
2018-05-18T07:30:10.633Z,56.59
2018-05-18T07:32:14.336Z,56.64
2018-05-18T07:34:18.253Z,57.71
2018-05-18T07:36:21.626Z,58.05
2018-05-18T07:38:25.191Z,58.49
2018-05-18T07:40:28.757Z,57.87
2018-05-18T07:42:33.395Z,58.54
2018-05-18T07:44:37.081Z,58.43
2018-05-18T07:46:40.605Z,58.13
2018-05-18T07:48:44.204Z,57.91
2018-05-18T07:50:48.081Z,57.94
2018-05-18T07:52:52.173Z,58.35
2018-05-18T07:54:55.633Z,58.80
2018-05-18T07:56:59.894Z,59.46
2018-05-18T07:59:03.562Z,58.83
2018-05-18T08:01:07.160Z,58.52
2018-05-18T08:03:10.684Z,57.59
2018-05-18T08:05:14.160Z,56.51
2018-05-18T08:07:17.737Z,56.23
2018-05-18T08:09:21.131Z,56.42
2018-05-18T08:11:24.845Z,56.05
2018-05-18T08:13:28.525Z,56.13
2018-05-18T08:15:31.963Z,56.13
2018-05-18T08:17:35.839Z,55.57
2018-05-18T08:19:39.691Z,54.41
2018-05-18T08:21:43.149Z,55.36
2018-05-18T08:23:47.881Z,54.89
2018-05-18T08:25:52.273Z,54.74
2018-05-18T08:27:55.749Z,55.53
2018-05-18T08:30:00.318Z,55.72
2018-05-18T08:32:04.117Z,56.60
2018-05-18T08:34:07.689Z,55.03
2018-05-18T08:36:11.168Z,53.31
2018-05-18T08:38:14.829Z,53.56
2018-05-18T08:40:18.497Z,55.49
2018-05-18T08:42:21.899Z,56.91
2018-05-18T08:44:26.113Z,56.69
2018-05-18T08:46:29.797Z,55.45
2018-05-18T08:48:33.211Z,53.32
2018-05-18T08:50:36.626Z,53.64
2018-05-18T08:52:40.149Z,54.47
2018-05-18T08:54:43.820Z,54.09
2018-05-18T08:56:47.347Z,53.56
2018-05-18T08:58:50.736Z,52.49
2018-05-18T09:00:54.130Z,52.70
2018-05-18T09:02:57.509Z,52.58
2018-05-18T09:05:02.903Z,53.81
2018-05-18T09:07:06.667Z,54.81
2018-05-18T09:09:11.684Z,53.65
2018-05-18T09:11:17.569Z,53.47
2018-05-18T09:13:21.812Z,52.84
2018-05-18T09:15:26.226Z,52.87
2018-05-18T09:17:29.972Z,54.06
2018-05-18T09:19:33.361Z,53.91
2018-05-18T09:21:36.718Z,53.53
2018-05-18T09:23:41.155Z,53.26
2018-05-18T09:25:46.065Z,53.66
2018-05-18T09:27:49.477Z,54.06
2018-05-18T09:29:52.818Z,53.41
2018-05-18T09:31:57.081Z,53.33
2018-05-18T09:34:00.675Z,52.61
2018-05-18T09:36:03.944Z,52.53
2018-05-18T09:38:08.072Z,52.95
2018-05-18T09:40:11.376Z,53.01
2018-05-18T09:42:14.719Z,52.67
2018-05-18T09:44:18.911Z,53.68
2018-05-18T09:46:22.280Z,53.13
2018-05-18T09:48:26.345Z,52.95
2018-05-18T09:50:29.695Z,52.69
2018-05-18T09:52:33.015Z,52.37
2018-05-18T09:54:38.270Z,52.12
2018-05-18T09:56:41.994Z,53.19
2018-05-18T09:58:45.803Z,52.35
2018-05-18T10:00:50.066Z,51.71
2018-05-18T10:02:53.345Z,50.73
2018-05-18T10:04:56.724Z,51.08
2018-05-18T10:07:00.695Z,50.61
2018-05-18T10:09:04.173Z,51.54
2018-05-18T10:11:07.565Z,51.40
2018-05-18T10:13:10.873Z,50.75
2018-05-18T10:15:14.239Z,50.63
2018-05-18T10:17:17.566Z,50.00
2018-05-18T10:19:20.893Z,50.90
2018-05-18T10:21:24.237Z,50.74
2018-05-18T10:23:27.990Z,50.88
2018-05-18T10:25:31.360Z,51.46
2018-05-18T10:27:34.762Z,50.34
2018-05-18T10:29:38.117Z,50.96
2018-05-18T10:31:41.438Z,50.37
2018-05-18T10:33:44.813Z,50.00
2018-05-18T10:35:48.234Z,50.09
2018-05-18T10:37:51.563Z,50.54
2018-05-18T10:39:54.962Z,50.00
2018-05-18T10:41:58.345Z,50.33
2018-05-18T10:44:01.718Z,50.17
2018-05-18T10:46:05.064Z,50.54
2018-05-18T10:48:08.555Z,49.65
2018-05-18T10:50:12.950Z,50.30
2018-05-18T10:52:17.496Z,49.79
2018-05-18T10:54:20.994Z,50.48
2018-05-18T10:56:24.612Z,51.25
2018-05-18T10:58:28.737Z,50.97
2018-05-18T11:00:32.308Z,51.04
2018-05-18T11:02:35.660Z,51.58
2018-05-18T11:04:39.820Z,50.33
2018-05-18T11:06:43.170Z,49.33
2018-05-18T11:08:46.506Z,49.12
2018-05-18T11:12:56.003Z,49.55
2018-05-18T11:15:00.285Z,49.27
2018-05-18T11:17:04.508Z,49.26
2018-05-18T11:19:10.515Z,49.98
2018-05-18T11:23:29.230Z,50.18
2018-05-18T11:25:32.802Z,48.48
2018-05-18T11:27:36.152Z,48.71
2018-05-18T11:29:39.504Z,48.91
2018-05-18T11:31:45.972Z,49.23
2018-05-18T11:33:53.051Z,48.76
2018-05-18T11:35:56.672Z,49.49
2018-05-18T11:38:03.875Z,49.61
2018-05-18T11:40:08.422Z,48.98
2018-05-18T11:42:11.997Z,48.88
2018-05-18T11:44:17.631Z,49.18
2018-05-18T11:46:25.834Z,47.78
2018-05-18T11:48:32.814Z,48.34
2018-05-18T11:50:36.327Z,48.17
2018-05-18T11:52:39.744Z,48.23
2018-05-18T11:54:43.949Z,47.47
2018-05-18T11:56:47.460Z,46.88
2018-05-18T11:58:50.890Z,46.67
2018-05-18T12:00:54.236Z,46.24
2018-05-18T12:02:57.664Z,47.19
2018-05-18T12:05:00.989Z,48.94
2018-05-18T12:07:04.468Z,48.71
2018-05-18T12:09:08.692Z,48.32
2018-05-18T12:11:12.134Z,48.07
2018-05-18T12:13:15.556Z,47.56
2018-05-18T12:15:18.913Z,47.65
2018-05-18T12:17:22.551Z,47.64
2018-05-18T12:19:25.915Z,47.81
2018-05-18T12:21:29.369Z,46.63
2018-05-18T12:23:33.488Z,47.20
2018-05-18T12:25:37.409Z,47.26
2018-05-18T12:27:41.042Z,46.77
2018-05-18T12:29:44.429Z,46.50
2018-05-18T12:31:47.768Z,45.75
2018-05-18T12:33:51.142Z,44.73
2018-05-18T12:35:56.081Z,45.72
2018-05-18T12:37:59.435Z,45.58
2018-05-18T12:40:02.804Z,45.01
2018-05-18T12:42:06.924Z,45.17
2018-05-18T12:44:11.064Z,45.31
2018-05-18T12:46:15.189Z,45.79
2018-05-18T12:48:18.510Z,46.74
2018-05-18T12:50:22.042Z,45.74
2018-05-18T12:52:25.376Z,45.19
2018-05-18T12:54:28.876Z,44.83
2018-05-18T12:56:32.385Z,45.09
2018-05-18T12:58:35.910Z,44.85
2018-05-18T13:00:40.297Z,44.86
2018-05-18T13:02:43.678Z,44.36
2018-05-18T13:04:47.925Z,43.64
2018-05-18T13:06:51.522Z,42.42
2018-05-18T13:08:55.654Z,42.53
2018-05-18T13:10:59.004Z,42.86
2018-05-18T13:13:03.293Z,42.54
2018-05-18T13:15:06.863Z,42.31
2018-05-18T13:19:20.254Z,42.45
2018-05-18T13:21:23.780Z,43.65
2018-05-18T13:23:27.432Z,43.61
2018-05-18T13:25:31.811Z,43.74
2018-05-18T13:27:37.356Z,43.47
2018-05-18T13:29:42.232Z,44.06
2018-05-18T13:31:45.607Z,43.18
2018-05-18T13:33:49.299Z,43.60
2018-05-18T13:35:52.979Z,43.24
2018-05-18T13:37:56.624Z,43.70
2018-05-18T13:40:00.109Z,43.51
2018-05-18T13:42:03.778Z,43.67
2018-05-18T13:44:07.586Z,43.76
2018-05-18T13:46:12.125Z,43.60
2018-05-18T13:48:16.000Z,44.20
2018-05-18T13:50:20.396Z,44.37
2018-05-18T13:52:23.769Z,44.62
2018-05-18T13:54:27.161Z,45.22
2018-05-18T13:56:30.649Z,44.38
2018-05-18T13:58:34.309Z,44.89
2018-05-18T14:00:37.860Z,43.71
2018-05-18T14:02:41.381Z,42.62
2018-05-18T14:04:44.830Z,42.59
2018-05-18T14:06:50.261Z,43.76
2018-05-18T14:08:54.357Z,44.36
2018-05-18T14:10:59.944Z,43.31
2018-05-18T14:13:03.366Z,42.99
2018-05-18T14:15:08.679Z,43.42
2018-05-18T14:17:14.153Z,42.05
2018-05-18T14:19:18.078Z,42.28
2018-05-18T14:21:21.471Z,42.02
2018-05-18T14:23:25.187Z,43.17
2018-05-18T14:25:28.706Z,41.85
2018-05-18T14:27:32.985Z,42.42
2018-05-18T14:29:36.349Z,41.59
2018-05-18T14:31:42.995Z,42.62
2018-05-18T14:33:46.394Z,42.50
2018-05-18T14:35:50.694Z,43.53
2018-05-18T14:37:54.214Z,42.12
2018-05-18T14:39:57.566Z,42.31
2018-05-18T14:42:01.793Z,42.11
2018-05-18T14:44:05.469Z,42.17
2018-05-18T14:46:08.885Z,41.90
2018-05-18T14:48:12.352Z,41.21
2018-05-18T14:50:15.845Z,41.22
2018-05-18T14:52:19.199Z,41.39
2018-05-18T14:54:22.592Z,40.91
2018-05-18T14:58:43.411Z,41.34
2018-05-18T15:00:47.727Z,41.62
2018-05-18T15:02:52.193Z,42.49
2018-05-18T15:04:55.664Z,41.56
2018-05-18T15:06:59.696Z,41.71
2018-05-18T15:09:03.947Z,42.51
2018-05-18T15:11:07.395Z,42.55
2018-05-18T15:13:11.243Z,42.43
2018-05-18T15:15:16.124Z,42.49
2018-05-18T15:17:19.572Z,42.84
2018-05-18T15:19:23.059Z,43.18
2018-05-18T15:21:28.183Z,42.85
2018-05-18T15:23:32.010Z,42.62
2018-05-18T15:25:35.861Z,41.92
2018-05-18T15:27:39.283Z,42.36
2018-05-18T15:29:42.831Z,42.38
2018-05-18T15:31:46.891Z,41.68
2018-05-18T15:33:51.365Z,40.97
2018-05-18T15:35:54.841Z,41.16
2018-05-18T15:37:59.078Z,40.40
2018-05-18T15:40:02.462Z,40.93
2018-05-18T15:42:06.153Z,41.01
2018-05-18T15:44:10.392Z,41.14
2018-05-18T15:46:14.620Z,40.97
2018-05-18T15:48:18.033Z,41.32
2018-05-18T15:50:21.374Z,41.23
2018-05-18T15:52:24.776Z,40.62
2018-05-18T15:54:28.235Z,39.61
2018-05-18T15:56:32.186Z,40.57
2018-05-18T15:58:36.602Z,39.60
2018-05-18T16:00:41.893Z,39.94
2018-05-18T16:02:45.450Z,39.61
2018-05-18T16:04:49.911Z,39.46
2018-05-18T16:06:53.387Z,40.00
2018-05-18T16:08:56.792Z,39.83
2018-05-18T16:11:00.301Z,40.35
2018-05-18T16:13:03.880Z,40.77
2018-05-18T16:15:07.451Z,39.99
2018-05-18T16:17:11.078Z,39.88
2018-05-18T16:19:14.662Z,40.35
2018-05-18T16:21:18.134Z,40.63
2018-05-18T16:23:22.398Z,40.59
2018-05-18T16:25:25.946Z,41.58
2018-05-18T16:27:30.303Z,41.73
2018-05-18T16:29:34.025Z,42.52
2018-05-18T16:31:37.515Z,42.38
2018-05-18T16:33:41.002Z,43.08
2018-05-18T16:35:45.395Z,42.51
2018-05-18T16:37:52.266Z,43.07
2018-05-18T16:39:55.769Z,44.34
2018-05-18T16:41:59.158Z,43.94
2018-05-18T16:44:03.215Z,44.32
2018-05-18T16:46:08.001Z,43.67
2018-05-18T16:48:13.810Z,43.65
2018-05-18T16:50:18.053Z,44.54
2018-05-18T16:52:21.427Z,44.92
2018-05-18T16:54:25.607Z,44.60
2018-05-18T16:56:29.080Z,44.53
2018-05-18T16:58:32.476Z,44.24
2018-05-18T17:00:37.087Z,44.69
2018-05-18T17:02:40.689Z,44.97
2018-05-18T17:04:44.753Z,45.30
2018-05-18T17:06:48.377Z,44.52
2018-05-18T17:08:52.894Z,45.31
2018-05-18T17:10:56.588Z,45.05
2018-05-18T17:13:00.466Z,44.88
2018-05-18T17:15:04.316Z,44.05
2018-05-18T17:17:07.685Z,44.93
2018-05-18T17:19:11.131Z,44.58
2018-05-18T17:21:14.907Z,44.84
2018-05-18T17:23:18.491Z,45.56
2018-05-18T17:25:22.103Z,46.37
2018-05-18T17:27:25.690Z,45.52
2018-05-18T17:29:29.212Z,44.90
2018-05-18T17:31:32.768Z,43.96
2018-05-18T17:33:36.288Z,44.27
2018-05-18T17:35:39.651Z,43.44
2018-05-18T17:37:43.369Z,41.99
2018-05-18T17:39:47.234Z,42.92
2018-05-18T17:41:50.867Z,42.52
2018-05-18T17:43:55.079Z,43.12
2018-05-18T17:45:58.653Z,42.95
2018-05-18T17:48:02.605Z,43.05
2018-05-18T17:50:06.803Z,43.57
2018-05-18T17:52:10.220Z,43.96
2018-05-18T17:54:13.770Z,44.28
2018-05-18T17:56:17.988Z,45.15
2018-05-18T17:58:21.356Z,44.74
2018-05-18T18:00:24.792Z,45.11
2018-05-18T18:04:35.070Z,46.41
2018-05-18T18:06:38.478Z,46.75
2018-05-18T18:08:41.927Z,46.47
2018-05-18T18:10:45.324Z,46.78
2018-05-18T18:12:48.739Z,46.53
2018-05-18T18:14:52.930Z,47.38
2018-05-18T18:16:56.380Z,47.63
2018-05-18T18:18:59.938Z,48.10
2018-05-18T18:21:03.483Z,48.14
2018-05-18T18:23:07.847Z,49.13
2018-05-18T18:25:12.120Z,48.55
2018-05-18T18:27:16.474Z,48.67
2018-05-18T18:29:20.049Z,48.96
2018-05-18T18:31:23.530Z,50.14
2018-05-18T18:33:27.807Z,49.17
2018-05-18T18:35:31.326Z,50.21
2018-05-18T18:37:35.081Z,50.04
2018-05-18T18:39:39.219Z,50.51
2018-05-18T18:41:43.498Z,51.28
2018-05-18T18:43:47.342Z,51.30
2018-05-18T18:45:50.968Z,51.23
2018-05-18T18:47:54.498Z,51.27
2018-05-18T18:49:58.058Z,51.64
2018-05-18T18:52:02.865Z,51.53
2018-05-18T18:54:06.698Z,50.99
2018-05-18T18:56:10.353Z,51.96
2018-05-18T18:58:13.889Z,51.75
2018-05-18T19:00:17.350Z,51.68
2018-05-18T19:02:21.159Z,51.81
2018-05-18T19:04:24.572Z,51.59
2018-05-18T19:06:28.026Z,51.67
2018-05-18T19:08:31.600Z,52.15
2018-05-18T19:10:35.398Z,52.71
2018-05-18T19:12:38.973Z,52.88
2018-05-18T19:14:42.645Z,52.95
2018-05-18T19:16:46.014Z,52.96
2018-05-18T19:18:49.419Z,53.02
2018-05-18T19:20:52.775Z,53.49
2018-05-18T19:22:56.974Z,53.64
2018-05-18T19:25:00.934Z,53.35
2018-05-18T19:27:04.400Z,53.33
2018-05-18T19:29:07.970Z,53.52
2018-05-18T19:31:11.503Z,53.95
2018-05-18T19:33:14.925Z,53.76
2018-05-18T19:35:18.398Z,53.87
2018-05-18T19:37:21.844Z,54.45
2018-05-18T19:39:25.321Z,54.66
2018-05-18T19:41:28.943Z,54.24
2018-05-18T19:43:32.418Z,54.98
2018-05-18T19:45:35.952Z,55.33
2018-05-18T19:47:39.584Z,55.27
2018-05-18T19:49:43.115Z,55.39
2018-05-18T19:51:46.687Z,55.28
2018-05-18T19:53:50.049Z,55.28
2018-05-18T19:55:53.454Z,55.19
2018-05-18T19:57:56.892Z,55.38
2018-05-18T20:00:00.321Z,55.37
2018-05-18T20:02:03.702Z,55.68
2018-05-18T20:04:07.045Z,55.63
2018-05-18T20:06:10.434Z,55.79
2018-05-18T20:08:14.061Z,56.02
2018-05-18T20:10:17.558Z,55.70
2018-05-18T20:12:21.171Z,55.59
2018-05-18T20:14:24.508Z,55.76
2018-05-18T20:16:30.569Z,55.71
2018-05-18T20:18:34.182Z,55.76
2018-05-18T20:22:34.622Z,56.52
2018-05-18T20:24:38.108Z,56.26
2018-05-18T20:26:41.939Z,57.03
2018-05-18T20:28:45.582Z,56.90
2018-05-18T20:30:50.273Z,57.30
2018-05-18T20:32:54.734Z,57.76
2018-05-18T20:34:58.482Z,58.20
2018-05-18T20:37:04.870Z,58.03
2018-05-18T20:39:12.892Z,58.13
2018-05-18T20:41:17.551Z,58.79
2018-05-18T20:43:21.636Z,58.80
2018-05-18T20:45:25.443Z,58.64
2018-05-18T20:47:28.886Z,59.06
2018-05-18T20:49:34.431Z,59.07
2018-05-18T20:51:38.725Z,59.00
2018-05-18T20:53:43.596Z,59.01
2018-05-18T20:55:47.419Z,59.49
2018-05-18T20:57:52.601Z,59.38
2018-05-18T20:59:56.913Z,59.03
2018-05-18T21:02:04.604Z,59.70
2018-05-18T21:04:09.263Z,60.00
2018-05-18T21:06:14.855Z,60.31
2018-05-18T21:08:19.081Z,60.32
2018-05-18T21:10:24.290Z,60.26
2018-05-18T21:12:27.924Z,60.65
2018-05-18T21:14:38.167Z,60.38
2018-05-18T21:16:41.592Z,60.64
2018-05-18T21:18:44.952Z,60.42
2018-05-18T21:20:48.388Z,60.34
2018-05-18T21:22:51.864Z,60.32
2018-05-18T21:24:55.220Z,60.28
2018-05-18T21:26:58.769Z,60.59
2018-05-18T21:29:02.256Z,61.10
2018-05-18T21:31:10.530Z,61.88
2018-05-18T21:33:14.415Z,62.15
2018-05-18T21:35:18.136Z,62.25
2018-05-18T21:37:21.671Z,62.26
2018-05-18T21:39:25.036Z,61.86
2018-05-18T21:41:28.521Z,62.23
2018-05-18T21:43:32.193Z,62.88
2018-05-18T21:45:37.834Z,62.91
2018-05-18T21:47:42.355Z,63.04
2018-05-18T21:49:47.565Z,62.74
2018-05-18T21:51:51.636Z,62.54
2018-05-18T21:53:57.251Z,62.16
2018-05-18T21:56:01.120Z,62.44
2018-05-18T21:58:05.744Z,62.54
2018-05-18T22:00:09.599Z,62.79
2018-05-18T22:02:13.298Z,62.67
2018-05-18T22:04:18.428Z,62.88
2018-05-18T22:06:21.835Z,63.21
2018-05-18T22:08:26.313Z,62.76
2018-05-18T22:10:29.630Z,62.66
2018-05-18T22:12:32.973Z,62.40
2018-05-18T22:14:36.447Z,62.17
2018-05-18T22:16:40.045Z,62.36
2018-05-18T22:18:44.206Z,62.93
2018-05-18T22:20:47.582Z,62.66
2018-05-18T22:22:51.923Z,63.54
2018-05-18T22:24:56.094Z,63.88
2018-05-18T22:26:59.502Z,63.79
2018-05-18T22:29:03.171Z,64.00
2018-05-18T22:33:18.910Z,64.77
2018-05-18T22:35:22.223Z,64.41
2018-05-18T22:37:25.713Z,64.45
2018-05-18T22:39:30.057Z,64.88
2018-05-18T22:41:33.373Z,65.27
2018-05-18T22:43:36.690Z,65.10
2018-05-18T22:45:40.024Z,65.12
2018-05-18T22:47:43.330Z,65.75
2018-05-18T22:49:47.816Z,65.86
2018-05-18T22:51:51.163Z,65.83
2018-05-18T22:53:55.245Z,66.19
2018-05-18T22:55:58.574Z,66.19
2018-05-18T22:58:02.466Z,66.37
2018-05-18T23:00:05.940Z,66.09
2018-05-18T23:02:10.793Z,66.43
2018-05-18T23:04:14.910Z,66.27
2018-05-18T23:06:18.226Z,66.56
2018-05-18T23:08:21.535Z,66.15
2018-05-18T23:10:25.098Z,66.27
2018-05-18T23:12:29.858Z,66.44
2018-05-18T23:14:33.461Z,66.50
2018-05-18T23:16:36.875Z,66.68
2018-05-18T23:18:43.021Z,66.77
2018-05-18T23:20:46.439Z,66.22
2018-05-18T23:22:49.905Z,66.86
2018-05-18T23:24:54.041Z,66.90
2018-05-18T23:26:57.339Z,66.79
2018-05-18T23:29:00.659Z,67.36
2018-05-18T23:31:04.182Z,66.95
2018-05-18T23:33:08.187Z,67.39
2018-05-18T23:35:11.673Z,67.78
2018-05-18T23:37:14.987Z,67.67
2018-05-18T23:39:19.044Z,67.58
2018-05-18T23:41:22.357Z,68.12
2018-05-18T23:43:25.729Z,68.51
2018-05-18T23:45:29.473Z,68.59
2018-05-18T23:47:32.791Z,68.26
2018-05-18T23:49:36.870Z,68.20
2018-05-18T23:51:40.253Z,68.01
2018-05-18T23:53:43.693Z,67.97
2018-05-18T23:55:47.031Z,68.07
2018-05-18T23:57:50.636Z,68.06
2018-05-18T23:59:54.014Z,68.14
